createdAt,value
2018-11-27T00:00:44.969Z,7.70
2018-11-27T00:03:14.602Z,7.68
2018-11-27T00:05:56.477Z,7.64
2018-11-27T00:08:38.104Z,7.61
2018-11-27T00:11:20.174Z,7.58
2018-11-27T00:14:07.857Z,7.26
2018-11-27T00:16:50.265Z,7.53
2018-11-27T00:19:31.804Z,7.49
2018-11-27T00:22:13.210Z,7.22
2018-11-27T00:24:43.076Z,7.47
2018-11-27T00:27:24.492Z,7.47
2018-11-27T00:29:54.394Z,7.45
2018-11-27T00:32:24.264Z,7.45
2018-11-27T00:35:21.813Z,7.06
2018-11-27T00:38:04.329Z,7.42
2018-11-27T00:40:46.081Z,7.09
2018-11-27T00:43:27.610Z,7.05
2018-11-27T00:46:09.424Z,7.41
2018-11-27T00:48:57.660Z,7.40
2018-11-27T00:51:39.828Z,7.39
2018-11-27T00:54:21.619Z,7.37
2018-11-27T00:57:03.332Z,7.37
2018-11-27T00:59:45.010Z,7.36
2018-11-27T01:02:32.935Z,7.35
2018-11-27T01:05:15.458Z,7.33
2018-11-27T01:07:56.846Z,7.29
2018-11-27T01:10:38.428Z,7.25
2018-11-27T01:13:08.301Z,7.21
2018-11-27T01:15:49.887Z,6.76
2018-11-27T01:18:31.200Z,7.14
2018-11-27T01:21:19.081Z,7.12
2018-11-27T01:24:01.201Z,7.08
2018-11-27T01:26:43.247Z,6.69
2018-11-27T01:29:25.013Z,6.59
2018-11-27T01:32:13.531Z,6.93
2018-11-27T01:34:55.048Z,6.54
2018-11-27T01:37:43.817Z,6.84
2018-11-27T01:40:26.727Z,6.80
2018-11-27T01:42:57.607Z,6.77
2018-11-27T01:45:39.844Z,6.75
2018-11-27T01:48:21.420Z,6.76
2018-11-27T01:51:03.121Z,6.73
2018-11-27T01:53:45.125Z,6.72
2018-11-27T01:56:26.961Z,6.71
2018-11-27T01:59:14.661Z,6.69
2018-11-27T02:01:56.453Z,6.67
2018-11-27T02:04:38.192Z,6.68
2018-11-27T02:07:19.730Z,6.34
2018-11-27T02:10:01.809Z,6.70
2018-11-27T02:12:31.650Z,6.71
2018-11-27T02:15:15.390Z,6.40
2018-11-27T02:17:57.617Z,6.49
2018-11-27T02:20:27.538Z,6.75
2018-11-27T02:23:09.890Z,6.51
2018-11-27T02:25:40.216Z,6.78
2018-11-27T02:28:22.532Z,6.78
2018-11-27T02:31:04.070Z,6.81
2018-11-27T02:33:45.873Z,6.57
2018-11-27T02:36:15.926Z,6.78
2018-11-27T02:38:45.857Z,6.77
2018-11-27T02:41:15.795Z,6.76
2018-11-27T02:44:03.464Z,6.39
2018-11-27T02:46:33.266Z,6.74
2018-11-27T02:49:15.758Z,6.73
2018-11-27T02:51:45.617Z,6.72
2018-11-27T02:54:27.263Z,6.71
2018-11-27T02:56:57.131Z,6.71
2018-11-27T02:59:39.254Z,6.71
2018-11-27T03:02:21.201Z,6.37
2018-11-27T03:05:03.711Z,6.72
2018-11-27T03:07:33.556Z,6.73
2018-11-27T03:10:03.846Z,6.74
2018-11-27T03:12:45.521Z,6.34
2018-11-27T03:15:27.354Z,6.76
2018-11-27T03:17:57.804Z,6.78
2018-11-27T03:20:39.835Z,6.46
2018-11-27T03:23:33.384Z,6.53
2018-11-27T03:26:14.887Z,6.42
2018-11-27T03:28:56.750Z,6.82
2018-11-27T03:31:38.382Z,6.67
2018-11-27T03:34:19.874Z,6.82
2018-11-27T03:37:08.045Z,6.84
2018-11-27T03:39:49.517Z,6.84
2018-11-27T03:42:31.261Z,6.63
2018-11-27T03:45:01.585Z,6.84
2018-11-27T03:47:43.753Z,6.83
2018-11-27T03:50:25.046Z,6.82
2018-11-27T03:53:06.527Z,6.51
2018-11-27T03:55:54.277Z,6.80
2018-11-27T03:58:36.973Z,6.80
2018-11-27T04:01:07.281Z,6.79
2018-11-27T04:03:48.782Z,6.49
2018-11-27T04:06:18.925Z,6.81
2018-11-27T04:09:00.611Z,6.81
2018-11-27T04:11:30.358Z,6.79
2018-11-27T04:14:11.854Z,6.43
2018-11-27T04:16:54.060Z,6.38
2018-11-27T04:19:36.238Z,6.39
2018-11-27T04:22:18.073Z,6.70
2018-11-27T04:24:59.654Z,6.66
2018-11-27T04:27:29.334Z,6.59
2018-11-27T04:30:14.653Z,6.56
2018-11-27T04:32:44.370Z,6.49
2018-11-27T04:35:26.656Z,6.43
2018-11-27T04:38:08.840Z,6.37
2018-11-27T04:40:50.509Z,5.87
2018-11-27T04:43:20.820Z,6.26
2018-11-27T04:45:50.810Z,6.18
2018-11-27T04:48:20.774Z,6.11
2018-11-27T04:54:03.558Z,5.97
2018-11-27T04:56:33.683Z,5.89
2018-11-27T04:59:22.053Z,5.81
2018-11-27T05:02:03.361Z,5.73
2018-11-27T05:04:33.510Z,5.65
2018-11-27T05:07:03.495Z,5.56
2018-11-27T05:09:33.461Z,5.48
2018-11-27T05:12:15.590Z,5.41
2018-11-27T05:14:45.531Z,5.33
2018-11-27T05:17:15.510Z,5.26
2018-11-27T05:19:45.470Z,5.18
2018-11-27T05:24:56.917Z,5.03
2018-11-27T05:27:54.609Z,4.96
2018-11-27T05:30:26.053Z,4.89
2018-11-27T05:32:56.279Z,4.82
2018-11-27T05:35:29.827Z,4.75
2018-11-27T05:38:01.603Z,4.70
2018-11-27T05:40:31.572Z,4.64
2018-11-27T05:43:12.470Z,4.58
2018-11-27T05:45:42.341Z,4.51
2018-11-27T05:48:12.179Z,4.46
2018-11-27T05:50:42.092Z,4.42
2018-11-27T05:53:11.777Z,4.36
2018-11-27T05:55:42.251Z,4.32
2018-11-27T05:58:24.230Z,4.28
2018-11-27T06:00:54.231Z,4.24
2018-11-27T06:03:24.244Z,4.20
2018-11-27T06:05:54.214Z,4.17
2018-11-27T06:08:24.155Z,4.13
2018-11-27T06:10:54.091Z,4.10
2018-11-27T06:13:24.934Z,4.07
2018-11-27T06:15:54.849Z,4.04
2018-11-27T06:18:24.836Z,4.02
2018-11-27T06:20:54.756Z,3.98
2018-11-27T06:23:24.745Z,3.96
2018-11-27T06:25:54.699Z,3.95
2018-11-27T06:28:24.650Z,3.95
2018-11-27T06:30:54.581Z,3.94
2018-11-27T06:33:24.490Z,3.95
2018-11-27T06:35:54.477Z,3.96
2018-11-27T06:38:24.608Z,3.98
2018-11-27T06:40:54.560Z,4.00
2018-11-27T06:43:24.456Z,4.03
2018-11-27T06:45:54.407Z,4.06
2018-11-27T06:48:24.308Z,4.10
2018-11-27T06:50:54.238Z,4.14
2018-11-27T06:53:24.162Z,4.17
2018-11-27T06:55:54.123Z,4.21
2018-11-27T06:58:24.080Z,4.26
2018-11-27T07:00:54.026Z,4.30
2018-11-27T07:03:23.933Z,4.36
2018-11-27T07:05:53.883Z,4.41
2018-11-27T07:08:23.854Z,4.45
2018-11-27T07:10:53.829Z,4.50
2018-11-27T07:13:25.437Z,4.56
2018-11-27T07:15:55.150Z,4.64
2018-11-27T07:18:24.894Z,4.68
2018-11-27T07:20:54.828Z,4.76
2018-11-27T07:23:24.704Z,4.83
2018-11-27T07:25:54.658Z,4.89
2018-11-27T07:28:24.547Z,4.96
2018-11-27T07:30:54.448Z,5.02
2018-11-27T07:33:24.319Z,5.11
2018-11-27T07:35:54.224Z,5.16
2018-11-27T07:38:24.164Z,5.22
2018-11-27T07:40:54.097Z,5.25
2018-11-27T07:43:24.117Z,5.29
2018-11-27T07:48:23.831Z,5.36
2018-11-27T07:50:53.667Z,5.42
2018-11-27T07:53:23.816Z,5.47
2018-11-27T07:55:54.197Z,5.52
2018-11-27T07:58:24.132Z,5.56
2018-11-27T08:00:54.090Z,5.61
2018-11-27T08:03:24.059Z,5.68
2018-11-27T08:05:53.958Z,5.74
2018-11-27T08:08:23.864Z,5.81
2018-11-27T08:10:53.783Z,5.86
2018-11-27T08:13:35.823Z,5.49
2018-11-27T08:16:24.447Z,5.97
2018-11-27T08:19:22.738Z,6.05
2018-11-27T08:22:11.227Z,6.12
2018-11-27T08:24:52.911Z,6.19
2018-11-27T08:27:34.201Z,6.27
2018-11-27T08:30:04.444Z,6.34
2018-11-27T08:32:46.012Z,6.41
2018-11-27T08:35:28.457Z,6.49
2018-11-27T08:38:16.515Z,6.58
2018-11-27T08:41:05.080Z,6.63
2018-11-27T08:43:46.923Z,6.70
2018-11-27T08:46:16.851Z,6.76
2018-11-27T08:48:46.664Z,6.81
2018-11-27T08:51:16.616Z,6.87
2018-11-27T08:53:58.709Z,6.92
2018-11-27T08:56:28.983Z,6.97
2018-11-27T08:58:59.103Z,7.03
2018-11-27T09:01:40.551Z,7.09
2018-11-27T09:04:10.934Z,7.15
2018-11-27T09:06:52.530Z,6.87
2018-11-27T09:09:34.289Z,7.29
2018-11-27T09:12:16.075Z,7.36
2018-11-27T09:14:46.139Z,7.43
2018-11-27T09:17:28.394Z,7.48
2018-11-27T09:19:58.366Z,7.56
2018-11-27T09:22:28.346Z,7.60
2018-11-27T09:24:58.257Z,7.66
2018-11-27T09:27:28.216Z,7.71
2018-11-27T09:29:58.114Z,7.77
2018-11-27T09:32:39.407Z,7.82
2018-11-27T09:35:09.401Z,7.86
2018-11-27T09:37:51.053Z,7.89
2018-11-27T09:40:33.248Z,7.94
2018-11-27T09:43:14.855Z,7.96
2018-11-27T09:45:45.733Z,8.00
2018-11-27T09:48:15.593Z,8.02
2018-11-27T09:50:45.497Z,8.07
2018-11-27T09:53:16.447Z,8.10
2018-11-27T09:55:46.293Z,8.16
2018-11-27T09:58:16.228Z,8.21
2018-11-27T10:00:46.088Z,8.27
2018-11-27T10:03:16.820Z,8.32
2018-11-27T10:05:46.691Z,8.38
2018-11-27T10:08:16.637Z,8.43
2018-11-27T10:10:46.569Z,8.48
2018-11-27T10:13:16.508Z,8.52
2018-11-27T10:15:46.387Z,8.56
2018-11-27T10:18:16.271Z,8.58
2018-11-27T10:20:46.151Z,8.61
2018-11-27T10:23:16.438Z,8.62
2018-11-27T10:25:46.325Z,8.64
2018-11-27T10:28:16.300Z,8.65
2018-11-27T10:31:05.984Z,8.68
2018-11-27T10:33:36.244Z,8.71
2018-11-27T10:36:06.212Z,8.74
2018-11-27T10:38:36.165Z,8.77
2018-11-27T10:41:18.940Z,8.54
2018-11-27T10:44:01.278Z,8.81
2018-11-27T10:46:31.151Z,8.85
2018-11-27T10:49:13.728Z,8.89
2018-11-27T10:51:43.619Z,8.92
2018-11-27T10:54:25.695Z,8.94
2018-11-27T10:56:55.820Z,8.94
2018-11-27T10:59:37.747Z,8.92
2018-11-27T11:02:24.387Z,8.57
2018-11-27T11:04:54.696Z,8.88
2018-11-27T11:07:36.966Z,8.87
2018-11-27T11:10:18.753Z,8.90
2018-11-27T11:13:01.310Z,8.92
2018-11-27T11:15:31.250Z,8.95
2018-11-27T11:18:13.142Z,8.96
2018-11-27T11:20:43.562Z,8.97
2018-11-27T11:23:26.014Z,8.67
2018-11-27T11:26:08.310Z,9.05
2018-11-27T11:28:38.282Z,9.07
2018-11-27T11:31:08.492Z,9.10
2018-11-27T11:33:51.504Z,9.12
2018-11-27T11:36:21.361Z,9.14
2018-11-27T11:39:03.188Z,9.14
2018-11-27T11:41:45.342Z,8.75
2018-11-27T11:44:15.449Z,9.16
2018-11-27T11:46:57.365Z,9.17
2018-11-27T11:49:39.185Z,8.81
2018-11-27T11:52:21.365Z,9.17
2018-11-27T11:55:03.235Z,8.84
2018-11-27T11:57:53.758Z,9.17
2018-11-27T12:00:43.166Z,9.20
2018-11-27T12:03:25.136Z,9.21
2018-11-27T12:05:55.012Z,9.25
2018-11-27T12:08:36.651Z,9.27
2018-11-27T12:11:06.804Z,9.30
2018-11-27T12:13:49.125Z,9.33
2018-11-27T12:16:30.814Z,9.02
2018-11-27T12:19:01.249Z,9.37
2018-11-27T12:21:43.375Z,9.22
2018-11-27T12:24:25.453Z,9.18
2018-11-27T12:26:55.547Z,9.43
2018-11-27T12:29:25.504Z,9.43
2018-11-27T12:32:07.916Z,9.45
2018-11-27T12:34:37.957Z,9.44
2018-11-27T12:37:07.901Z,9.45
2018-11-27T12:39:37.861Z,9.42
2018-11-27T12:42:20.256Z,9.38
2018-11-27T12:45:02.649Z,9.36
2018-11-27T12:47:32.558Z,9.33
2018-11-27T12:50:15.395Z,9.32
2018-11-27T12:55:39.269Z,9.34
2018-11-27T12:58:21.221Z,9.00
2018-11-27T13:01:03.115Z,9.12
2018-11-27T13:03:46.304Z,9.35
2018-11-27T13:06:35.442Z,9.33
2018-11-27T13:09:17.995Z,9.32
2018-11-27T13:11:48.008Z,9.31
2018-11-27T13:14:29.768Z,9.30
2018-11-27T13:17:11.825Z,9.30
2018-11-27T13:19:42.054Z,9.29
2018-11-27T13:22:12.114Z,9.28
2018-11-27T13:24:54.346Z,9.28
2018-11-27T13:27:36.372Z,9.27
2018-11-27T13:30:21.220Z,9.25
2018-11-27T13:33:06.312Z,9.24
2018-11-27T13:35:36.650Z,9.18
2018-11-27T13:38:18.374Z,9.12
2018-11-27T13:41:00.626Z,9.07
2018-11-27T13:43:43.015Z,9.02
2018-11-27T13:46:24.949Z,8.96
2018-11-27T13:49:07.136Z,8.89
2018-11-27T13:51:56.454Z,8.52
2018-11-27T13:54:26.412Z,8.82
2018-11-27T13:56:56.344Z,8.80
2018-11-27T13:59:26.373Z,8.77
2018-11-27T14:02:09.293Z,8.74
2018-11-27T14:04:51.569Z,8.72
2018-11-27T14:07:33.400Z,8.71
2018-11-27T14:10:15.640Z,8.71
2018-11-27T14:12:58.158Z,8.72
2018-11-27T14:15:39.821Z,8.40
2018-11-27T14:18:10.070Z,8.69
2018-11-27T14:20:51.925Z,8.69
2018-11-27T14:23:34.394Z,8.71
2018-11-27T14:26:16.146Z,8.71
2018-11-27T14:28:57.949Z,8.72
2018-11-27T14:31:28.313Z,8.71
2018-11-27T14:34:10.194Z,8.42
2018-11-27T14:36:52.278Z,8.71
2018-11-27T14:39:34.221Z,8.42
2018-11-27T14:42:04.179Z,8.71
2018-11-27T14:44:46.245Z,8.70
2018-11-27T14:47:16.219Z,8.68
2018-11-27T14:49:46.190Z,8.67
2018-11-27T14:52:28.346Z,8.68
2018-11-27T14:54:58.291Z,8.67
2018-11-27T14:57:40.211Z,8.47
2018-11-27T15:00:22.589Z,8.40
2018-11-27T15:03:05.279Z,8.60
2018-11-27T15:05:54.423Z,8.57
2018-11-27T15:08:24.424Z,8.52
2018-11-27T15:11:06.735Z,8.48
2018-11-27T15:13:48.957Z,8.44
2018-11-27T15:16:30.375Z,8.40
2018-11-27T15:19:00.600Z,8.35
2018-11-27T15:21:42.125Z,8.34
2018-11-27T15:24:23.673Z,8.32
2018-11-27T15:26:53.730Z,8.28
2018-11-27T15:29:23.704Z,8.25
2018-11-27T15:31:53.631Z,8.22
2018-11-27T15:34:35.298Z,8.20
2018-11-27T15:37:16.862Z,8.17
2018-11-27T15:39:46.900Z,8.12
2018-11-27T15:42:16.907Z,8.05
2018-11-27T15:44:59.417Z,7.97
2018-11-27T15:47:41.317Z,7.86
2018-11-27T15:50:23.264Z,7.76
2018-11-27T15:53:05.729Z,7.63
2018-11-27T15:55:58.627Z,7.49
2018-11-27T15:58:40.202Z,7.34
2018-11-27T16:01:22.218Z,6.76
2018-11-27T16:04:04.317Z,7.07
2018-11-27T16:06:34.435Z,6.94
2018-11-27T16:09:16.491Z,6.81
2018-11-27T16:11:58.953Z,6.34
2018-11-27T16:14:29.426Z,6.53
2018-11-27T16:16:59.440Z,6.40
2018-11-27T16:19:29.682Z,6.27
2018-11-27T16:21:59.598Z,6.16
2018-11-27T16:24:29.547Z,6.03
2018-11-27T16:26:59.514Z,5.91
2018-11-27T16:29:50.118Z,5.78
2018-11-27T16:32:31.401Z,5.65
2018-11-27T16:35:14.425Z,5.52
2018-11-27T16:37:46.353Z,5.36
2018-11-27T16:40:18.838Z,5.23
2018-11-27T16:42:48.854Z,5.10
2018-11-27T16:45:39.184Z,5.02
2018-11-27T16:48:09.196Z,4.90
2018-11-27T16:50:39.025Z,4.80
2018-11-27T16:53:09.251Z,4.72
2018-11-27T16:55:39.427Z,4.64
2018-11-27T16:58:09.350Z,4.57
2018-11-27T17:00:39.279Z,4.49
2018-11-27T17:03:10.030Z,4.44
2018-11-27T17:05:52.389Z,4.40
2018-11-27T17:08:22.757Z,4.37
2018-11-27T17:10:53.046Z,4.36
2018-11-27T17:13:23.005Z,4.36
2018-11-27T17:15:53.207Z,4.34
2018-11-27T17:18:23.578Z,4.33
2018-11-27T17:20:53.521Z,4.32
2018-11-27T17:23:23.470Z,4.30
2018-11-27T17:26:11.750Z,4.31
2018-11-27T17:28:41.719Z,4.32
2018-11-27T17:31:14.864Z,4.33
2018-11-27T17:34:05.143Z,4.34
2018-11-27T17:36:36.045Z,4.36
2018-11-27T17:39:11.422Z,4.40
2018-11-27T17:41:41.568Z,4.42
2018-11-27T17:44:17.135Z,4.45
2018-11-27T17:46:47.124Z,4.47
2018-11-27T17:49:17.127Z,4.50
2018-11-27T17:51:47.152Z,4.54
2018-11-27T17:54:17.160Z,4.59
2018-11-27T17:56:47.207Z,4.63
2018-11-27T17:59:17.179Z,4.68
2018-11-27T18:01:47.220Z,4.74
2018-11-27T18:04:17.153Z,4.79
2018-11-27T18:06:47.110Z,4.84
2018-11-27T18:09:17.082Z,4.89
2018-11-27T18:11:47.033Z,4.93
2018-11-27T18:14:16.935Z,4.97
2018-11-27T18:16:46.907Z,5.01
2018-11-27T18:19:16.868Z,5.05
2018-11-27T18:21:46.852Z,5.09
2018-11-27T18:24:16.830Z,5.12
2018-11-27T18:26:46.760Z,5.17
2018-11-27T18:29:16.738Z,5.22
2018-11-27T18:31:46.713Z,5.25
2018-11-27T18:34:28.917Z,5.29
2018-11-27T18:36:58.891Z,5.31
2018-11-27T18:39:29.111Z,5.32
2018-11-27T18:42:10.825Z,5.32
2018-11-27T18:44:40.905Z,5.30
2018-11-27T18:47:11.452Z,5.27
2018-11-27T18:49:41.401Z,5.24
2018-11-27T18:52:22.904Z,5.22
2018-11-27T18:54:53.340Z,5.20
2018-11-27T18:57:23.322Z,5.18
2018-11-27T18:59:53.311Z,5.15
2018-11-27T19:02:23.326Z,5.12
2018-11-27T19:04:53.370Z,5.08
2018-11-27T19:07:23.365Z,5.06
2018-11-27T19:09:53.368Z,5.04
2018-11-27T19:12:23.339Z,5.02
2018-11-27T19:14:53.296Z,4.99
2018-11-27T19:17:23.161Z,4.95
2018-11-27T19:20:05.094Z,4.92
2018-11-27T19:22:35.328Z,4.88
2018-11-27T19:25:07.028Z,4.84
2018-11-27T19:27:37.045Z,4.79
2018-11-27T19:30:15.999Z,4.78
2018-11-27T19:32:44.768Z,4.74
2018-11-27T19:35:17.479Z,4.71
2018-11-27T19:37:48.350Z,4.68
2018-11-27T19:40:20.061Z,4.66
2018-11-27T19:42:50.227Z,4.63
2018-11-27T19:45:26.119Z,4.61
2018-11-27T19:47:56.677Z,4.59
2018-11-27T19:50:28.705Z,4.56
2018-11-27T19:52:58.847Z,4.53
2018-11-27T19:55:28.866Z,4.50
2018-11-27T19:57:58.928Z,4.48
2018-11-27T20:00:29.974Z,4.46
2018-11-27T20:03:00.397Z,4.42
2018-11-27T20:05:42.510Z,4.39
2018-11-27T20:08:16.587Z,4.36
2018-11-27T20:10:46.780Z,4.34
2018-11-27T20:13:17.000Z,4.31
2018-11-27T20:15:46.999Z,4.29
2018-11-27T20:18:17.012Z,4.24
2018-11-27T20:20:47.014Z,4.21
2018-11-27T20:23:17.003Z,4.17
2018-11-27T20:25:46.976Z,4.13
2018-11-27T20:28:16.964Z,4.11
2018-11-27T20:30:47.047Z,4.09
2018-11-27T20:33:17.313Z,4.06
2018-11-27T20:35:47.348Z,4.04
2018-11-27T20:38:17.359Z,4.04
2018-11-27T20:40:48.455Z,4.02
2018-11-27T20:43:17.602Z,4.01
2018-11-27T20:45:47.648Z,4.01
2018-11-27T20:48:19.958Z,3.99
2018-11-27T20:50:52.341Z,3.99
2018-11-27T20:53:22.945Z,3.98
2018-11-27T20:55:53.018Z,3.97
2018-11-27T20:58:23.034Z,3.96
2018-11-27T21:00:53.823Z,3.92
2018-11-27T21:03:23.901Z,3.93
2018-11-27T21:05:54.004Z,3.93
2018-11-27T21:08:23.969Z,3.91
2018-11-27T21:10:54.081Z,3.90
2018-11-27T21:13:24.091Z,3.89
2018-11-27T21:15:54.167Z,3.86
2018-11-27T21:18:24.138Z,3.85
2018-11-27T21:20:54.160Z,3.84
2018-11-27T21:23:24.206Z,3.84
2018-11-27T21:25:56.434Z,3.83
2018-11-27T21:28:24.262Z,3.82
2018-11-27T21:30:54.254Z,3.82
2018-11-27T21:33:24.656Z,3.81
2018-11-27T21:35:54.645Z,3.80
2018-11-27T21:38:24.694Z,3.80
2018-11-27T21:40:54.684Z,3.79
2018-11-27T21:43:24.707Z,3.78
2018-11-27T21:45:54.705Z,3.78
2018-11-27T21:48:24.790Z,3.77
2018-11-27T21:50:58.714Z,3.76
2018-11-27T21:53:28.887Z,3.75
2018-11-27T21:55:58.876Z,3.74
2018-11-27T21:58:29.128Z,3.73
2018-11-27T22:00:59.124Z,3.72
2018-11-27T22:03:29.088Z,3.72
2018-11-27T22:05:59.109Z,3.70
2018-11-27T22:08:29.131Z,3.69
2018-11-27T22:10:59.112Z,3.69
2018-11-27T22:13:29.117Z,3.67
2018-11-27T22:15:59.167Z,3.67
2018-11-27T22:18:29.149Z,3.67
2018-11-27T22:20:59.216Z,3.65
2018-11-27T22:23:29.246Z,3.65
2018-11-27T22:25:59.314Z,3.65
2018-11-27T22:28:29.333Z,3.62
2018-11-27T22:30:59.376Z,3.59
2018-11-27T22:33:29.389Z,3.59
2018-11-27T22:35:59.385Z,3.58
2018-11-27T22:38:29.329Z,3.57
2018-11-27T22:40:59.357Z,3.57
2018-11-27T22:43:29.268Z,3.57
2018-11-27T22:45:59.315Z,3.57
2018-11-27T22:48:29.302Z,3.56
2018-11-27T22:50:59.266Z,3.56
2018-11-27T22:53:29.261Z,3.55
2018-11-27T22:56:00.314Z,3.56
2018-11-27T22:58:29.278Z,3.56
2018-11-27T23:00:59.297Z,3.55
2018-11-27T23:03:29.309Z,3.55
2018-11-27T23:05:59.350Z,3.54
2018-11-27T23:08:29.326Z,3.54
2018-11-27T23:10:59.323Z,3.55
2018-11-27T23:13:29.327Z,3.55
2018-11-27T23:15:59.348Z,3.55
2018-11-27T23:18:29.246Z,3.55
2018-11-27T23:20:59.185Z,3.57
2018-11-27T23:23:29.223Z,3.57
2018-11-27T23:25:59.285Z,3.58
2018-11-27T23:28:29.739Z,3.60
2018-11-27T23:30:59.845Z,3.61
2018-11-27T23:33:30.356Z,3.61
2018-11-27T23:36:00.366Z,3.61
2018-11-27T23:38:30.312Z,3.62
2018-11-27T23:41:00.285Z,3.63
2018-11-27T23:43:30.276Z,3.62
2018-11-27T23:46:00.366Z,3.63
2018-11-27T23:48:30.364Z,3.62
2018-11-27T23:51:00.394Z,3.61
2018-11-27T23:53:30.342Z,3.60
2018-11-27T23:56:00.301Z,3.60
2018-11-27T23:58:30.295Z,3.59
